Date,TemperatureHighF,TemperatureAvgF,TemperatureLowF,DewpointHighF,DewpointAvgF,DewpointLowF,HumidityHigh,HumidityAvg,HumidityLow,PressureMaxIn,PressureMinIn,WindSpeedMaxMPH,WindSpeedAvgMPH,GustSpeedMaxMPH,PrecipitationSumIn
2013-8-1,87.6,76.7,71.6,78.3,73.5,71.0,98,90,70,29.79,29.68,8,1,0,0.00
2013-8-2,91.8,78.4,67.5,76.8,72.4,66.9,98,83,61,29.83,29.71,5,1,0,0.00
2013-8-3,87.8,78.6,69.3,77.4,72.9,68.7,98,84,63,29.82,29.74,4,1,0,0.00
2013-8-4,92.1,79.5,70.0,78.0,72.7,66.5,98,81,61,29.81,29.72,7,1,0,0.00
2013-8-5,86.7,76.6,69.1,76.5,71.0,65.4,95,84,69,29.86,29.75,4,1,0,0.00
2013-8-6,86.2,76.0,71.2,78.3,73.6,70.6,98,93,75,29.84,29.74,8,2,0,4.09
2013-8-7,81.0,73.8,71.8,77.1,72.9,71.2,98,97,87,29.87,29.79,7,1,0,0.79
2013-8-8,83.7,75.7,71.2,78.0,73.9,70.6,98,94,83,29.88,29.80,5,1,0,0.04
2013-8-9,88.5,77.6,72.3,79.9,75.3,71.7,98,93,71,29.88,29.81,5,1,0,0.68
2013-8-10,89.6,77.8,71.2,80.0,75.1,70.6,98,92,71,29.91,29.84,7,1,0,0.21
2013-8-11,90.5,76.8,69.4,79.6,74.0,68.8,98,92,69,29.94,29.85,6,1,0,0.59
2013-8-12,92.1,78.6,70.2,80.6,74.9,69.6,98,90,64,29.89,29.75,6,1,0,0.32
2013-8-13,88.7,78.4,71.8,79.6,74.9,71.2,98,89,71,29.77,29.60,5,1,0,0.01
2013-8-14,83.7,73.6,66.0,73.3,70.2,65.4,98,90,69,29.85,29.65,6,1,0,0.70
2013-8-15,75.0,67.8,62.6,66.5,63.9,61.4,98,88,73,29.93,29.83,8,2,0,0.00
2013-8-16,77.7,67.6,62.2,67.6,63.2,60.4,95,86,69,29.95,29.86,6,2,0,0.00
2013-8-17,71.1,66.0,63.5,66.6,63.8,61.2,98,93,81,29.98,29.91,6,1,0,0.17
2013-8-18,77.0,68.9,64.4,72.5,67.8,63.8,98,96,85,30.03,29.93,5,1,0,0.64
2013-8-19,78.1,71.2,67.1,73.6,69.7,66.5,98,95,84,29.99,29.88,5,1,0,1.70
2013-8-20,84.4,73.9,68.4,75.4,71.2,67.8,98,92,74,29.99,29.90,6,1,0,0.00
2013-8-21,87.1,74.5,70.2,76.1,72.2,69.6,98,93,70,30.05,29.92,3,1,0,0.23
2013-8-22,88.9,76.7,68.2,77.1,72.9,67.6,98,89,65,29.97,29.83,4,1,0,0.00
2013-8-23,91.0,76.0,68.4,77.7,71.5,67.8,98,88,59,29.87,29.75,4,1,0,0.47
2013-8-24,84.6,73.5,64.9,71.2,67.4,62.5,98,83,59,30.08,29.85,8,2,0,0.00
2013-8-25,83.8,71.6,59.9,69.7,63.8,58.6,97,78,54,30.19,30.06,7,1,0,0.00
2013-8-26,86.4,72.4,59.0,72.8,66.0,58.4,98,82,61,30.12,29.92,5,1,0,0.00
2013-8-27,89.6,75.3,61.9,75.5,69.2,61.3,98,83,57,29.96,29.80,6,1,0,0.00
2013-8-28,90.1,78.0,67.1,76.1,71.9,66.5,98,83,58,29.84,29.73,4,1,0,0.00
2013-8-29,94.8,79.9,68.5,80.2,74.1,67.9,98,84,58,29.77,29.68,4,1,0,0.00
2013-8-30,85.1,77.3,73.2,77.3,74.4,72.6,98,91,76,29.85,29.73,4,1,0,0.00
2013-8-31,90.1,76.1,69.8,79.8,73.8,69.2,98,93,71,29.76,29.68,6,1,0,0.80